sensor_id;sensor_type;location;lat;lon;timestamp;P1;durP1;ratioP1;P2;durP2;ratioP2
61358;SDS011;47228;46.762;23.598;2022-12-18T00:00:03;50.30;;;24.90;;
61358;SDS011;47228;46.762;23.598;2022-12-18T00:02:33;61.80;;;26.40;;
61358;SDS011;47228;46.762;23.598;2022-12-18T00:05:00;58.40;;;25.20;;
61358;SDS011;47228;46.762;23.598;2022-12-18T00:07:28;52.30;;;25.10;;
61358;SDS011;47228;46.762;23.598;2022-12-18T00:09:56;52.30;;;25.00;;
61358;SDS011;47228;46.762;23.598;2022-12-18T00:12:24;57.40;;;25.60;;
61358;SDS011;47228;46.762;23.598;2022-12-18T00:14:52;55.60;;;26.10;;
61358;SDS011;47228;46.762;23.598;2022-12-18T00:17:20;57.00;;;26.10;;
61358;SDS011;47228;46.762;23.598;2022-12-18T00:19:48;54.60;;;27.10;;
61358;SDS011;47228;46.762;23.598;2022-12-18T00:22:18;55.70;;;25.30;;
61358;SDS011;47228;46.762;23.598;2022-12-18T00:24:46;51.90;;;25.30;;
61358;SDS011;47228;46.762;23.598;2022-12-18T00:27:14;53.30;;;25.10;;
61358;SDS011;47228;46.762;23.598;2022-12-18T00:29:42;51.50;;;24.20;;
61358;SDS011;47228;46.762;23.598;2022-12-18T00:32:10;51.40;;;24.90;;
61358;SDS011;47228;46.762;23.598;2022-12-18T00:34:37;56.50;;;26.10;;
61358;SDS011;47228;46.762;23.598;2022-12-18T00:37:05;53.00;;;23.60;;
61358;SDS011;47228;46.762;23.598;2022-12-18T00:39:33;55.20;;;27.30;;
61358;SDS011;47228;46.762;23.598;2022-12-18T00:42:01;53.70;;;26.10;;
61358;SDS011;47228;46.762;23.598;2022-12-18T00:44:48;51.80;;;25.80;;
61358;SDS011;47228;46.762;23.598;2022-12-18T00:47:16;57.70;;;25.40;;
61358;SDS011;47228;46.762;23.598;2022-12-18T00:49:44;56.80;;;25.70;;
61358;SDS011;47228;46.762;23.598;2022-12-18T00:52:12;54.20;;;26.70;;
61358;SDS011;47228;46.762;23.598;2022-12-18T00:54:39;53.70;;;26.20;;
61358;SDS011;47228;46.762;23.598;2022-12-18T00:57:07;59.50;;;26.80;;
61358;SDS011;47228;46.762;23.598;2022-12-18T00:59:35;58.10;;;26.70;;
61358;SDS011;47228;46.762;23.598;2022-12-18T01:02:03;55.00;;;24.70;;
61358;SDS011;47228;46.762;23.598;2022-12-18T01:04:31;57.90;;;26.20;;
61358;SDS011;47228;46.762;23.598;2022-12-18T01:07:00;54.70;;;25.70;;
61358;SDS011;47228;46.762;23.598;2022-12-18T01:09:28;56.80;;;25.00;;
61358;SDS011;47228;46.762;23.598;2022-12-18T01:11:56;63.00;;;26.40;;
61358;SDS011;47228;46.762;23.598;2022-12-18T01:14:25;60.10;;;26.50;;
61358;SDS011;47228;46.762;23.598;2022-12-18T01:16:52;58.30;;;26.70;;
61358;SDS011;47228;46.762;23.598;2022-12-18T01:19:20;56.90;;;26.70;;
61358;SDS011;47228;46.762;23.598;2022-12-18T01:21:48;58.80;;;26.90;;
61358;SDS011;47228;46.762;23.598;2022-12-18T01:24:16;58.10;;;26.50;;
61358;SDS011;47228;46.762;23.598;2022-12-18T01:26:45;61.20;;;28.30;;
61358;SDS011;47228;46.762;23.598;2022-12-18T01:29:13;57.60;;;27.00;;
61358;SDS011;47228;46.762;23.598;2022-12-18T01:31:41;53.90;;;25.50;;
61358;SDS011;47228;46.762;23.598;2022-12-18T01:34:09;55.10;;;26.50;;
61358;SDS011;47228;46.762;23.598;2022-12-18T01:36:38;52.00;;;25.30;;
61358;SDS011;47228;46.762;23.598;2022-12-18T01:39:12;57.30;;;27.40;;
61358;SDS011;47228;46.762;23.598;2022-12-18T01:41:42;54.40;;;25.70;;
61358;SDS011;47228;46.762;23.598;2022-12-18T01:55:39;57.50;;;27.70;;
61358;SDS011;47228;46.762;23.598;2022-12-18T01:58:14;60.90;;;27.10;;
61358;SDS011;47228;46.762;23.598;2022-12-18T02:00:43;55.20;;;26.90;;
61358;SDS011;47228;46.762;23.598;2022-12-18T02:03:12;58.40;;;25.90;;
61358;SDS011;47228;46.762;23.598;2022-12-18T02:05:59;58.00;;;27.50;;
61358;SDS011;47228;46.762;23.598;2022-12-18T02:17:05;58.20;;;25.70;;
61358;SDS011;47228;46.762;23.598;2022-12-18T02:19:41;54.30;;;24.60;;
61358;SDS011;47228;46.762;23.598;2022-12-18T02:27:34;56.00;;;27.00;;
61358;SDS011;47228;46.762;23.598;2022-12-18T02:30:04;55.70;;;26.80;;
61358;SDS011;47228;46.762;23.598;2022-12-18T02:32:37;57.10;;;26.10;;
61358;SDS011;47228;46.762;23.598;2022-12-18T02:35:11;61.70;;;29.50;;
61358;SDS011;47228;46.762;23.598;2022-12-18T02:37:44;60.90;;;27.00;;
61358;SDS011;47228;46.762;23.598;2022-12-18T02:40:14;57.00;;;26.40;;
61358;SDS011;47228;46.762;23.598;2022-12-18T02:42:44;55.80;;;27.40;;
61358;SDS011;47228;46.762;23.598;2022-12-18T02:45:13;58.70;;;27.80;;
61358;SDS011;47228;46.762;23.598;2022-12-18T02:47:42;59.50;;;26.30;;
61358;SDS011;47228;46.762;23.598;2022-12-18T02:50:16;69.00;;;29.00;;
61358;SDS011;47228;46.762;23.598;2022-12-18T02:55:39;64.70;;;29.60;;
61358;SDS011;47228;46.762;23.598;2022-12-18T03:04:04;59.70;;;26.00;;
61358;SDS011;47228;46.762;23.598;2022-12-18T03:06:53;55.40;;;26.00;;
61358;SDS011;47228;46.762;23.598;2022-12-18T03:09:28;56.40;;;26.60;;
61358;SDS011;47228;46.762;23.598;2022-12-18T03:12:09;52.70;;;24.50;;
61358;SDS011;47228;46.762;23.598;2022-12-18T03:14:56;47.90;;;22.70;;
61358;SDS011;47228;46.762;23.598;2022-12-18T03:17:29;50.90;;;23.40;;
61358;SDS011;47228;46.762;23.598;2022-12-18T03:20:02;52.20;;;23.60;;
61358;SDS011;47228;46.762;23.598;2022-12-18T03:22:37;47.70;;;23.30;;
61358;SDS011;47228;46.762;23.598;2022-12-18T03:25:08;53.50;;;25.10;;
61358;SDS011;47228;46.762;23.598;2022-12-18T03:27:42;49.80;;;24.40;;
61358;SDS011;47228;46.762;23.598;2022-12-18T03:30:15;49.90;;;23.70;;
61358;SDS011;47228;46.762;23.598;2022-12-18T03:35:34;55.50;;;26.20;;
61358;SDS011;47228;46.762;23.598;2022-12-18T03:40:41;57.20;;;26.00;;
61358;SDS011;47228;46.762;23.598;2022-12-18T03:49:22;62.20;;;27.40;;
61358;SDS011;47228;46.762;23.598;2022-12-18T03:52:03;64.50;;;28.40;;
61358;SDS011;47228;46.762;23.598;2022-12-18T03:54:37;65.00;;;28.00;;
61358;SDS011;47228;46.762;23.598;2022-12-18T03:57:09;66.80;;;29.80;;
61358;SDS011;47228;46.762;23.598;2022-12-18T03:59:43;61.60;;;26.80;;
61358;SDS011;47228;46.762;23.598;2022-12-18T04:02:13;63.30;;;28.70;;
61358;SDS011;47228;46.762;23.598;2022-12-18T04:04:44;63.60;;;27.90;;
61358;SDS011;47228;46.762;23.598;2022-12-18T04:07:14;64.50;;;28.20;;
61358;SDS011;47228;46.762;23.598;2022-12-18T04:09:43;60.90;;;28.00;;
61358;SDS011;47228;46.762;23.598;2022-12-18T04:12:13;57.90;;;27.30;;
61358;SDS011;47228;46.762;23.598;2022-12-18T04:14:41;55.20;;;25.70;;
61358;SDS011;47228;46.762;23.598;2022-12-18T04:17:08;64.50;;;27.70;;
61358;SDS011;47228;46.762;23.598;2022-12-18T04:19:36;62.60;;;27.60;;
61358;SDS011;47228;46.762;23.598;2022-12-18T04:22:04;69.80;;;29.50;;
61358;SDS011;47228;46.762;23.598;2022-12-18T04:24:32;67.10;;;30.90;;
61358;SDS011;47228;46.762;23.598;2022-12-18T04:27:00;67.50;;;29.30;;
61358;SDS011;47228;46.762;23.598;2022-12-18T04:29:28;68.00;;;28.60;;
61358;SDS011;47228;46.762;23.598;2022-12-18T04:31:56;66.10;;;29.20;;
61358;SDS011;47228;46.762;23.598;2022-12-18T04:34:24;66.90;;;30.40;;
61358;SDS011;47228;46.762;23.598;2022-12-18T04:36:52;70.90;;;31.10;;
61358;SDS011;47228;46.762;23.598;2022-12-18T04:39:20;75.80;;;32.00;;
61358;SDS011;47228;46.762;23.598;2022-12-18T04:41:48;75.90;;;30.90;;
61358;SDS011;47228;46.762;23.598;2022-12-18T04:44:16;69.80;;;30.30;;
61358;SDS011;47228;46.762;23.598;2022-12-18T04:46:44;71.20;;;31.40;;
61358;SDS011;47228;46.762;23.598;2022-12-18T04:49:12;75.60;;;32.90;;
61358;SDS011;47228;46.762;23.598;2022-12-18T04:51:40;84.30;;;33.70;;
61358;SDS011;47228;46.762;23.598;2022-12-18T04:54:07;83.50;;;34.80;;
61358;SDS011;47228;46.762;23.598;2022-12-18T04:56:35;82.90;;;32.60;;
61358;SDS011;47228;46.762;23.598;2022-12-18T04:59:03;79.80;;;32.00;;
61358;SDS011;47228;46.762;23.598;2022-12-18T05:01:32;68.40;;;30.30;;
61358;SDS011;47228;46.762;23.598;2022-12-18T05:04:02;74.70;;;33.20;;
61358;SDS011;47228;46.762;23.598;2022-12-18T05:06:30;72.60;;;31.00;;
61358;SDS011;47228;46.762;23.598;2022-12-18T05:08:58;77.20;;;30.80;;
61358;SDS011;47228;46.762;23.598;2022-12-18T05:11:26;76.60;;;31.80;;
61358;SDS011;47228;46.762;23.598;2022-12-18T05:13:54;82.20;;;31.90;;
61358;SDS011;47228;46.762;23.598;2022-12-18T05:16:25;86.80;;;34.00;;
61358;SDS011;47228;46.762;23.598;2022-12-18T05:18:53;80.90;;;31.80;;
61358;SDS011;47228;46.762;23.598;2022-12-18T05:21:20;78.00;;;31.30;;
61358;SDS011;47228;46.762;23.598;2022-12-18T05:23:48;73.60;;;31.60;;
61358;SDS011;47228;46.762;23.598;2022-12-18T05:26:17;73.90;;;31.70;;
61358;SDS011;47228;46.762;23.598;2022-12-18T05:28:45;77.50;;;32.90;;
61358;SDS011;47228;46.762;23.598;2022-12-18T05:31:14;76.70;;;30.60;;
61358;SDS011;47228;46.762;23.598;2022-12-18T05:33:42;70.90;;;30.20;;
61358;SDS011;47228;46.762;23.598;2022-12-18T05:36:11;74.20;;;31.10;;
61358;SDS011;47228;46.762;23.598;2022-12-18T05:38:39;69.20;;;28.90;;
61358;SDS011;47228;46.762;23.598;2022-12-18T05:41:08;79.00;;;32.60;;
61358;SDS011;47228;46.762;23.598;2022-12-18T05:43:37;74.40;;;31.20;;
61358;SDS011;47228;46.762;23.598;2022-12-18T05:46:08;87.30;;;34.00;;
61358;SDS011;47228;46.762;23.598;2022-12-18T05:48:39;79.90;;;32.20;;
61358;SDS011;47228;46.762;23.598;2022-12-18T05:51:09;86.20;;;32.80;;
61358;SDS011;47228;46.762;23.598;2022-12-18T05:53:39;90.90;;;33.90;;
61358;SDS011;47228;46.762;23.598;2022-12-18T05:56:09;84.80;;;31.20;;
61358;SDS011;47228;46.762;23.598;2022-12-18T05:58:42;88.70;;;33.60;;
61358;SDS011;47228;46.762;23.598;2022-12-18T06:01:12;92.10;;;34.60;;
61358;SDS011;47228;46.762;23.598;2022-12-18T06:03:43;82.80;;;33.90;;
61358;SDS011;47228;46.762;23.598;2022-12-18T06:06:13;88.90;;;35.40;;
61358;SDS011;47228;46.762;23.598;2022-12-18T06:08:43;86.80;;;34.20;;
61358;SDS011;47228;46.762;23.598;2022-12-18T06:11:15;94.30;;;36.30;;
61358;SDS011;47228;46.762;23.598;2022-12-18T06:13:45;88.40;;;34.60;;
61358;SDS011;47228;46.762;23.598;2022-12-18T06:16:24;87.00;;;34.20;;
61358;SDS011;47228;46.762;23.598;2022-12-18T06:18:52;89.90;;;32.30;;
61358;SDS011;47228;46.762;23.598;2022-12-18T06:21:20;100.20;;;36.20;;
61358;SDS011;47228;46.762;23.598;2022-12-18T06:23:48;112.60;;;37.60;;
61358;SDS011;47228;46.762;23.598;2022-12-18T06:26:16;108.40;;;39.50;;
61358;SDS011;47228;46.762;23.598;2022-12-18T06:28:44;111.60;;;39.70;;
61358;SDS011;47228;46.762;23.598;2022-12-18T06:31:12;112.10;;;41.30;;
61358;SDS011;47228;46.762;23.598;2022-12-18T06:33:40;102.60;;;38.20;;
61358;SDS011;47228;46.762;23.598;2022-12-18T06:36:10;106.30;;;39.30;;
61358;SDS011;47228;46.762;23.598;2022-12-18T06:38:41;107.00;;;38.20;;
61358;SDS011;47228;46.762;23.598;2022-12-18T06:41:11;108.70;;;38.60;;
61358;SDS011;47228;46.762;23.598;2022-12-18T06:43:46;103.50;;;35.10;;
61358;SDS011;47228;46.762;23.598;2022-12-18T06:46:14;93.30;;;35.10;;
61358;SDS011;47228;46.762;23.598;2022-12-18T06:48:42;106.20;;;36.80;;
61358;SDS011;47228;46.762;23.598;2022-12-18T06:51:10;103.50;;;38.80;;
61358;SDS011;47228;46.762;23.598;2022-12-18T06:53:43;127.70;;;41.80;;
61358;SDS011;47228;46.762;23.598;2022-12-18T06:56:11;107.60;;;42.10;;
61358;SDS011;47228;46.762;23.598;2022-12-18T06:58:40;117.10;;;39.50;;
61358;SDS011;47228;46.762;23.598;2022-12-18T07:01:10;123.90;;;40.70;;
61358;SDS011;47228;46.762;23.598;2022-12-18T07:03:40;108.60;;;37.00;;
61358;SDS011;47228;46.762;23.598;2022-12-18T07:06:14;112.50;;;39.70;;
61358;SDS011;47228;46.762;23.598;2022-12-18T07:08:43;104.10;;;38.50;;
61358;SDS011;47228;46.762;23.598;2022-12-18T07:11:13;121.20;;;42.70;;
61358;SDS011;47228;46.762;23.598;2022-12-18T07:13:42;117.90;;;37.50;;
61358;SDS011;47228;46.762;23.598;2022-12-18T07:16:13;120.60;;;39.90;;
61358;SDS011;47228;46.762;23.598;2022-12-18T07:18:52;116.00;;;40.90;;
61358;SDS011;47228;46.762;23.598;2022-12-18T07:21:24;107.50;;;37.60;;
61358;SDS011;47228;46.762;23.598;2022-12-18T07:23:53;111.80;;;37.40;;
61358;SDS011;47228;46.762;23.598;2022-12-18T07:26:21;102.00;;;35.10;;
61358;SDS011;47228;46.762;23.598;2022-12-18T07:28:50;107.20;;;37.60;;
61358;SDS011;47228;46.762;23.598;2022-12-18T07:31:21;97.50;;;34.00;;
61358;SDS011;47228;46.762;23.598;2022-12-18T07:33:50;86.30;;;29.90;;
61358;SDS011;47228;46.762;23.598;2022-12-18T07:36:24;90.60;;;32.90;;
61358;SDS011;47228;46.762;23.598;2022-12-18T07:38:52;82.20;;;30.40;;
61358;SDS011;47228;46.762;23.598;2022-12-18T07:41:20;86.80;;;31.30;;
61358;SDS011;47228;46.762;23.598;2022-12-18T07:43:51;86.00;;;28.00;;
61358;SDS011;47228;46.762;23.598;2022-12-18T07:46:19;75.70;;;27.70;;
61358;SDS011;47228;46.762;23.598;2022-12-18T07:48:47;73.50;;;29.00;;
61358;SDS011;47228;46.762;23.598;2022-12-18T07:51:17;84.30;;;30.50;;
61358;SDS011;47228;46.762;23.598;2022-12-18T07:53:46;80.50;;;28.30;;
61358;SDS011;47228;46.762;23.598;2022-12-18T07:56:19;88.00;;;30.30;;
61358;SDS011;47228;46.762;23.598;2022-12-18T07:58:58;88.70;;;30.10;;
61358;SDS011;47228;46.762;23.598;2022-12-18T08:01:27;70.50;;;26.50;;
61358;SDS011;47228;46.762;23.598;2022-12-18T08:03:57;70.00;;;26.60;;
61358;SDS011;47228;46.762;23.598;2022-12-18T08:06:26;68.20;;;26.30;;
61358;SDS011;47228;46.762;23.598;2022-12-18T08:08:54;68.70;;;25.40;;
61358;SDS011;47228;46.762;23.598;2022-12-18T08:11:24;76.50;;;27.40;;
61358;SDS011;47228;46.762;23.598;2022-12-18T08:13:54;63.90;;;25.10;;
61358;SDS011;47228;46.762;23.598;2022-12-18T08:16:23;68.20;;;25.60;;
61358;SDS011;47228;46.762;23.598;2022-12-18T08:18:52;75.60;;;27.10;;
61358;SDS011;47228;46.762;23.598;2022-12-18T08:21:26;78.00;;;28.00;;
61358;SDS011;47228;46.762;23.598;2022-12-18T08:23:57;70.60;;;27.30;;
61358;SDS011;47228;46.762;23.598;2022-12-18T08:26:27;80.90;;;28.40;;
61358;SDS011;47228;46.762;23.598;2022-12-18T08:28:57;65.80;;;25.50;;
61358;SDS011;47228;46.762;23.598;2022-12-18T08:31:26;67.70;;;25.20;;
61358;SDS011;47228;46.762;23.598;2022-12-18T08:33:55;71.10;;;26.30;;
61358;SDS011;47228;46.762;23.598;2022-12-18T08:36:24;62.80;;;23.80;;
61358;SDS011;47228;46.762;23.598;2022-12-18T08:38:53;63.50;;;25.10;;
61358;SDS011;47228;46.762;23.598;2022-12-18T08:41:22;68.50;;;26.50;;
61358;SDS011;47228;46.762;23.598;2022-12-18T08:43:50;75.40;;;28.60;;
61358;SDS011;47228;46.762;23.598;2022-12-18T08:46:38;69.20;;;27.00;;
61358;SDS011;47228;46.762;23.598;2022-12-18T08:49:08;66.10;;;25.30;;
61358;SDS011;47228;46.762;23.598;2022-12-18T08:51:37;70.60;;;25.00;;
61358;SDS011;47228;46.762;23.598;2022-12-18T08:54:07;62.30;;;25.00;;
61358;SDS011;47228;46.762;23.598;2022-12-18T08:56:43;60.80;;;23.50;;
61358;SDS011;47228;46.762;23.598;2022-12-18T08:59:11;61.90;;;25.10;;
61358;SDS011;47228;46.762;23.598;2022-12-18T09:01:46;59.40;;;24.50;;
61358;SDS011;47228;46.762;23.598;2022-12-18T09:04:15;59.50;;;23.70;;
61358;SDS011;47228;46.762;23.598;2022-12-18T09:06:43;60.10;;;22.50;;
61358;SDS011;47228;46.762;23.598;2022-12-18T09:09:11;60.80;;;25.90;;
61358;SDS011;47228;46.762;23.598;2022-12-18T09:11:40;60.30;;;23.20;;
61358;SDS011;47228;46.762;23.598;2022-12-18T09:14:08;61.10;;;23.30;;
61358;SDS011;47228;46.762;23.598;2022-12-18T09:16:37;53.50;;;22.20;;
61358;SDS011;47228;46.762;23.598;2022-12-18T09:19:05;48.60;;;20.90;;
61358;SDS011;47228;46.762;23.598;2022-12-18T09:21:34;56.90;;;23.60;;
61358;SDS011;47228;46.762;23.598;2022-12-18T09:24:13;57.10;;;21.00;;
61358;SDS011;47228;46.762;23.598;2022-12-18T09:26:42;61.50;;;23.10;;
61358;SDS011;47228;46.762;23.598;2022-12-18T09:29:14;58.40;;;22.50;;
61358;SDS011;47228;46.762;23.598;2022-12-18T09:31:45;55.40;;;22.40;;
61358;SDS011;47228;46.762;23.598;2022-12-18T09:34:14;48.40;;;21.30;;
61358;SDS011;47228;46.762;23.598;2022-12-18T09:36:42;56.50;;;21.60;;
61358;SDS011;47228;46.762;23.598;2022-12-18T09:39:10;57.50;;;24.50;;
61358;SDS011;47228;46.762;23.598;2022-12-18T09:47:00;55.40;;;22.50;;
61358;SDS011;47228;46.762;23.598;2022-12-18T09:49:41;49.50;;;19.90;;
61358;SDS011;47228;46.762;23.598;2022-12-18T09:52:12;48.10;;;19.90;;
61358;SDS011;47228;46.762;23.598;2022-12-18T09:54:46;50.50;;;20.70;;
61358;SDS011;47228;46.762;23.598;2022-12-18T09:57:20;44.30;;;19.20;;
61358;SDS011;47228;46.762;23.598;2022-12-18T09:59:58;39.10;;;16.00;;
61358;SDS011;47228;46.762;23.598;2022-12-18T10:02:39;44.40;;;17.20;;
61358;SDS011;47228;46.762;23.598;2022-12-18T10:05:09;38.70;;;16.30;;
61358;SDS011;47228;46.762;23.598;2022-12-18T10:10:53;35.70;;;16.10;;
61358;SDS011;47228;46.762;23.598;2022-12-18T10:19:03;43.90;;;18.00;;
61358;SDS011;47228;46.762;23.598;2022-12-18T10:27:22;30.50;;;13.90;;
61358;SDS011;47228;46.762;23.598;2022-12-18T10:29:53;35.30;;;14.40;;
61358;SDS011;47228;46.762;23.598;2022-12-18T10:32:25;35.50;;;15.10;;
61358;SDS011;47228;46.762;23.598;2022-12-18T10:34:56;33.00;;;14.00;;
61358;SDS011;47228;46.762;23.598;2022-12-18T10:37:28;31.90;;;13.40;;
61358;SDS011;47228;46.762;23.598;2022-12-18T10:40:14;32.90;;;13.80;;
61358;SDS011;47228;46.762;23.598;2022-12-18T10:43:32;29.70;;;13.40;;
61358;SDS011;47228;46.762;23.598;2022-12-18T10:45:42;33.00;;;14.20;;
61358;SDS011;47228;46.762;23.598;2022-12-18T10:54:18;36.70;;;14.70;;
61358;SDS011;47228;46.762;23.598;2022-12-18T10:56:49;27.90;;;12.00;;
61358;SDS011;47228;46.762;23.598;2022-12-18T10:59:17;26.30;;;12.10;;
61358;SDS011;47228;46.762;23.598;2022-12-18T11:01:50;27.10;;;12.10;;
61358;SDS011;47228;46.762;23.598;2022-12-18T11:04:26;33.30;;;13.50;;
61358;SDS011;47228;46.762;23.598;2022-12-18T11:09:27;28.20;;;13.30;;
61358;SDS011;47228;46.762;23.598;2022-12-18T11:12:00;31.10;;;13.70;;
61358;SDS011;47228;46.762;23.598;2022-12-18T11:14:32;31.20;;;13.00;;
61358;SDS011;47228;46.762;23.598;2022-12-18T11:19:59;26.00;;;11.90;;
61358;SDS011;47228;46.762;23.598;2022-12-18T11:23:05;30.30;;;12.60;;
61358;SDS011;47228;46.762;23.598;2022-12-18T11:25:41;32.90;;;14.50;;
61358;SDS011;47228;46.762;23.598;2022-12-18T11:31:09;40.70;;;17.70;;
61358;SDS011;47228;46.762;23.598;2022-12-18T11:33:46;29.00;;;14.20;;
61358;SDS011;47228;46.762;23.598;2022-12-18T11:36:45;29.30;;;12.70;;
61358;SDS011;47228;46.762;23.598;2022-12-18T11:39:18;27.40;;;13.50;;
61358;SDS011;47228;46.762;23.598;2022-12-18T11:41:54;29.10;;;13.00;;
61358;SDS011;47228;46.762;23.598;2022-12-18T11:50:28;23.00;;;10.20;;
61358;SDS011;47228;46.762;23.598;2022-12-18T11:53:02;21.60;;;10.40;;
61358;SDS011;47228;46.762;23.598;2022-12-18T12:09:46;23.70;;;11.10;;
61358;SDS011;47228;46.762;23.598;2022-12-18T12:21:07;24.70;;;11.20;;
61358;SDS011;47228;46.762;23.598;2022-12-18T12:40:41;33.70;;;12.80;;
61358;SDS011;47228;46.762;23.598;2022-12-18T12:43:44;30.30;;;13.60;;
61358;SDS011;47228;46.762;23.598;2022-12-18T12:46:18;26.90;;;12.80;;
61358;SDS011;47228;46.762;23.598;2022-12-18T12:48:50;25.80;;;12.70;;
61358;SDS011;47228;46.762;23.598;2022-12-18T12:51:28;28.00;;;12.70;;
61358;SDS011;47228;46.762;23.598;2022-12-18T12:53:59;25.30;;;12.50;;
61358;SDS011;47228;46.762;23.598;2022-12-18T13:04:56;27.30;;;13.00;;
61358;SDS011;47228;46.762;23.598;2022-12-18T13:10:38;28.80;;;14.20;;
61358;SDS011;47228;46.762;23.598;2022-12-18T13:13:17;30.10;;;14.20;;
61358;SDS011;47228;46.762;23.598;2022-12-18T13:16:04;27.00;;;11.60;;
61358;SDS011;47228;46.762;23.598;2022-12-18T13:18:35;24.40;;;11.60;;
61358;SDS011;47228;46.762;23.598;2022-12-18T13:21:05;22.40;;;10.80;;
61358;SDS011;47228;46.762;23.598;2022-12-18T13:23:50;28.00;;;12.10;;
61358;SDS011;47228;46.762;23.598;2022-12-18T13:28:56;27.60;;;11.50;;
61358;SDS011;47228;46.762;23.598;2022-12-18T13:34:19;26.00;;;12.20;;
61358;SDS011;47228;46.762;23.598;2022-12-18T13:39:59;27.50;;;12.90;;
61358;SDS011;47228;46.762;23.598;2022-12-18T13:42:37;29.60;;;13.50;;
61358;SDS011;47228;46.762;23.598;2022-12-18T13:45:38;32.50;;;14.00;;
61358;SDS011;47228;46.762;23.598;2022-12-18T13:50:43;34.20;;;16.10;;
61358;SDS011;47228;46.762;23.598;2022-12-18T13:53:21;31.50;;;15.00;;
61358;SDS011;47228;46.762;23.598;2022-12-18T13:55:56;32.90;;;14.50;;
61358;SDS011;47228;46.762;23.598;2022-12-18T13:58:25;34.50;;;16.60;;
61358;SDS011;47228;46.762;23.598;2022-12-18T14:00:52;32.30;;;15.20;;
61358;SDS011;47228;46.762;23.598;2022-12-18T14:03:22;36.10;;;15.40;;
61358;SDS011;47228;46.762;23.598;2022-12-18T14:05:55;34.40;;;16.80;;
61358;SDS011;47228;46.762;23.598;2022-12-18T14:08:27;37.60;;;15.70;;
61358;SDS011;47228;46.762;23.598;2022-12-18T14:11:01;33.60;;;16.00;;
61358;SDS011;47228;46.762;23.598;2022-12-18T14:13:35;39.60;;;17.80;;
61358;SDS011;47228;46.762;23.598;2022-12-18T14:16:07;40.60;;;18.00;;
61358;SDS011;47228;46.762;23.598;2022-12-18T14:18:53;39.00;;;17.30;;
61358;SDS011;47228;46.762;23.598;2022-12-18T14:21:45;36.50;;;17.40;;
61358;SDS011;47228;46.762;23.598;2022-12-18T14:26:48;37.00;;;16.80;;
61358;SDS011;47228;46.762;23.598;2022-12-18T14:31:46;36.60;;;17.30;;
61358;SDS011;47228;46.762;23.598;2022-12-18T14:34:34;47.20;;;19.50;;
61358;SDS011;47228;46.762;23.598;2022-12-18T14:37:02;37.60;;;17.50;;
61358;SDS011;47228;46.762;23.598;2022-12-18T14:39:30;39.90;;;18.50;;
61358;SDS011;47228;46.762;23.598;2022-12-18T14:41:58;44.20;;;17.90;;
61358;SDS011;47228;46.762;23.598;2022-12-18T14:44:26;38.70;;;18.60;;
61358;SDS011;47228;46.762;23.598;2022-12-18T14:47:12;40.70;;;18.50;;
61358;SDS011;47228;46.762;23.598;2022-12-18T14:49:43;42.20;;;17.80;;
61358;SDS011;47228;46.762;23.598;2022-12-18T14:52:21;40.30;;;19.10;;
61358;SDS011;47228;46.762;23.598;2022-12-18T14:54:53;43.40;;;21.20;;
61358;SDS011;47228;46.762;23.598;2022-12-18T14:57:22;39.60;;;18.80;;
61358;SDS011;47228;46.762;23.598;2022-12-18T14:59:52;38.40;;;17.90;;
61358;SDS011;47228;46.762;23.598;2022-12-18T15:02:21;38.50;;;18.70;;
61358;SDS011;47228;46.762;23.598;2022-12-18T15:05:04;37.70;;;19.60;;
61358;SDS011;47228;46.762;23.598;2022-12-18T15:08:02;36.10;;;18.30;;
61358;SDS011;47228;46.762;23.598;2022-12-18T15:10:31;41.60;;;18.70;;
61358;SDS011;47228;46.762;23.598;2022-12-18T15:23:32;45.90;;;21.50;;
61358;SDS011;47228;46.762;23.598;2022-12-18T15:26:08;46.50;;;20.50;;
61358;SDS011;47228;46.762;23.598;2022-12-18T15:31:24;43.80;;;19.50;;
61358;SDS011;47228;46.762;23.598;2022-12-18T15:36:26;44.00;;;19.90;;
61358;SDS011;47228;46.762;23.598;2022-12-18T15:38:57;43.80;;;19.70;;
61358;SDS011;47228;46.762;23.598;2022-12-18T15:41:34;44.60;;;20.90;;
61358;SDS011;47228;46.762;23.598;2022-12-18T15:44:15;43.50;;;20.00;;
61358;SDS011;47228;46.762;23.598;2022-12-18T15:46:49;44.50;;;20.70;;
61358;SDS011;47228;46.762;23.598;2022-12-18T15:49:17;45.50;;;20.10;;
61358;SDS011;47228;46.762;23.598;2022-12-18T15:51:45;42.60;;;20.00;;
61358;SDS011;47228;46.762;23.598;2022-12-18T15:54:20;42.20;;;19.30;;
61358;SDS011;47228;46.762;23.598;2022-12-18T15:57:08;43.90;;;21.00;;
61358;SDS011;47228;46.762;23.598;2022-12-18T15:59:53;46.20;;;22.40;;
61358;SDS011;47228;46.762;23.598;2022-12-18T16:02:26;43.30;;;20.20;;
61358;SDS011;47228;46.762;23.598;2022-12-18T16:04:56;48.00;;;21.80;;
61358;SDS011;47228;46.762;23.598;2022-12-18T16:07:24;50.60;;;24.10;;
61358;SDS011;47228;46.762;23.598;2022-12-18T16:09:56;48.80;;;21.60;;
61358;SDS011;47228;46.762;23.598;2022-12-18T16:12:29;44.90;;;20.50;;
61358;SDS011;47228;46.762;23.598;2022-12-18T16:14:57;46.60;;;21.90;;
61358;SDS011;47228;46.762;23.598;2022-12-18T16:17:24;48.20;;;21.60;;
61358;SDS011;47228;46.762;23.598;2022-12-18T16:19:52;44.90;;;21.00;;
61358;SDS011;47228;46.762;23.598;2022-12-18T16:22:21;44.10;;;22.00;;
61358;SDS011;47228;46.762;23.598;2022-12-18T16:24:50;47.70;;;22.10;;
61358;SDS011;47228;46.762;23.598;2022-12-18T16:27:20;47.70;;;21.70;;
61358;SDS011;47228;46.762;23.598;2022-12-18T16:29:48;47.10;;;22.60;;
61358;SDS011;47228;46.762;23.598;2022-12-18T16:32:17;52.90;;;23.90;;
61358;SDS011;47228;46.762;23.598;2022-12-18T16:34:47;50.40;;;23.10;;
61358;SDS011;47228;46.762;23.598;2022-12-18T16:37:15;43.20;;;21.50;;
61358;SDS011;47228;46.762;23.598;2022-12-18T16:39:44;46.90;;;22.90;;
61358;SDS011;47228;46.762;23.598;2022-12-18T16:42:13;52.20;;;22.10;;
61358;SDS011;47228;46.762;23.598;2022-12-18T16:44:48;49.00;;;22.80;;
61358;SDS011;47228;46.762;23.598;2022-12-18T16:47:17;48.00;;;22.20;;
61358;SDS011;47228;46.762;23.598;2022-12-18T16:49:46;47.30;;;21.60;;
61358;SDS011;47228;46.762;23.598;2022-12-18T16:52:16;43.60;;;20.90;;
61358;SDS011;47228;46.762;23.598;2022-12-18T16:54:44;48.10;;;21.10;;
61358;SDS011;47228;46.762;23.598;2022-12-18T16:57:14;49.50;;;22.80;;
61358;SDS011;47228;46.762;23.598;2022-12-18T16:59:44;43.00;;;20.10;;
61358;SDS011;47228;46.762;23.598;2022-12-18T17:02:17;44.70;;;21.40;;
61358;SDS011;47228;46.762;23.598;2022-12-18T17:04:53;49.00;;;23.00;;
61358;SDS011;47228;46.762;23.598;2022-12-18T17:07:22;44.50;;;22.10;;
61358;SDS011;47228;46.762;23.598;2022-12-18T17:09:51;48.00;;;22.50;;
61358;SDS011;47228;46.762;23.598;2022-12-18T17:12:21;51.30;;;24.30;;
61358;SDS011;47228;46.762;23.598;2022-12-18T17:14:49;45.80;;;22.70;;
61358;SDS011;47228;46.762;23.598;2022-12-18T17:17:17;45.50;;;21.80;;
61358;SDS011;47228;46.762;23.598;2022-12-18T17:19:49;49.00;;;22.90;;
61358;SDS011;47228;46.762;23.598;2022-12-18T17:22:19;47.00;;;21.80;;